sensor_id;sensor_type;location;lat;lon;timestamp;P1;durP1;ratioP1;P2;durP2;ratioP2
4583;SDS011;2304;47.606;12.186;2023-07-24T00:00:02;13.60;;;7.93;;
4583;SDS011;2304;47.606;12.186;2023-07-24T00:05:06;15.10;;;8.23;;
4583;SDS011;2304;47.606;12.186;2023-07-24T00:10:08;12.83;;;8.00;;
4583;SDS011;2304;47.606;12.186;2023-07-24T00:15:10;13.70;;;8.17;;
4583;SDS011;2304;47.606;12.186;2023-07-24T00:20:13;15.00;;;8.17;;
4583;SDS011;2304;47.606;12.186;2023-07-24T00:25:15;12.27;;;8.07;;
4583;SDS011;2304;47.606;12.186;2023-07-24T00:30:17;14.00;;;8.40;;
4583;SDS011;2304;47.606;12.186;2023-07-24T00:35:20;12.93;;;7.67;;
4583;SDS011;2304;47.606;12.186;2023-07-24T00:40:22;16.73;;;8.23;;
4583;SDS011;2304;47.606;12.186;2023-07-24T00:45:24;13.63;;;7.93;;
4583;SDS011;2304;47.606;12.186;2023-07-24T00:50:28;13.53;;;8.23;;
4583;SDS011;2304;47.606;12.186;2023-07-24T00:55:31;13.77;;;9.10;;
4583;SDS011;2304;47.606;12.186;2023-07-24T01:00:33;15.10;;;9.57;;
4583;SDS011;2304;47.606;12.186;2023-07-24T01:05:36;12.77;;;8.10;;
4583;SDS011;2304;47.606;12.186;2023-07-24T01:10:38;12.77;;;8.83;;
4583;SDS011;2304;47.606;12.186;2023-07-24T01:15:42;17.40;;;9.63;;
4583;SDS011;2304;47.606;12.186;2023-07-24T01:20:51;13.17;;;8.77;;
4583;SDS011;2304;47.606;12.186;2023-07-24T01:25:57;15.60;;;8.00;;
4583;SDS011;2304;47.606;12.186;2023-07-24T01:31:00;16.50;;;9.43;;
4583;SDS011;2304;47.606;12.186;2023-07-24T01:36:02;16.33;;;8.50;;
4583;SDS011;2304;47.606;12.186;2023-07-24T01:41:06;15.67;;;8.83;;
4583;SDS011;2304;47.606;12.186;2023-07-24T01:46:09;13.90;;;9.00;;
4583;SDS011;2304;47.606;12.186;2023-07-24T01:51:10;14.23;;;8.30;;
4583;SDS011;2304;47.606;12.186;2023-07-24T01:56:13;14.40;;;8.77;;
4583;SDS011;2304;47.606;12.186;2023-07-24T02:01:15;15.50;;;9.10;;
4583;SDS011;2304;47.606;12.186;2023-07-24T02:06:17;14.70;;;8.60;;
4583;SDS011;2304;47.606;12.186;2023-07-24T02:11:20;13.50;;;8.67;;
4583;SDS011;2304;47.606;12.186;2023-07-24T02:16:22;11.80;;;8.40;;
4583;SDS011;2304;47.606;12.186;2023-07-24T02:21:24;14.00;;;8.80;;
4583;SDS011;2304;47.606;12.186;2023-07-24T02:26:27;15.43;;;8.73;;
4583;SDS011;2304;47.606;12.186;2023-07-24T02:31:28;14.10;;;8.90;;
4583;SDS011;2304;47.606;12.186;2023-07-24T02:36:30;16.33;;;9.00;;
4583;SDS011;2304;47.606;12.186;2023-07-24T02:41:33;14.57;;;8.20;;
4583;SDS011;2304;47.606;12.186;2023-07-24T02:46:35;16.47;;;9.50;;
4583;SDS011;2304;47.606;12.186;2023-07-24T02:51:37;17.10;;;8.97;;
4583;SDS011;2304;47.606;12.186;2023-07-24T02:56:40;17.63;;;9.50;;
4583;SDS011;2304;47.606;12.186;2023-07-24T03:01:42;13.30;;;9.00;;
4583;SDS011;2304;47.606;12.186;2023-07-24T03:06:44;15.13;;;9.27;;
4583;SDS011;2304;47.606;12.186;2023-07-24T03:11:47;15.87;;;9.87;;
4583;SDS011;2304;47.606;12.186;2023-07-24T03:16:49;14.30;;;9.07;;
4583;SDS011;2304;47.606;12.186;2023-07-24T03:21:51;12.33;;;8.50;;
4583;SDS011;2304;47.606;12.186;2023-07-24T03:26:54;16.07;;;8.87;;
4583;SDS011;2304;47.606;12.186;2023-07-24T03:31:56;14.63;;;9.80;;
4583;SDS011;2304;47.606;12.186;2023-07-24T03:36:57;15.07;;;8.80;;
4583;SDS011;2304;47.606;12.186;2023-07-24T03:42:01;17.23;;;9.37;;
4583;SDS011;2304;47.606;12.186;2023-07-24T03:47:03;16.20;;;10.03;;
4583;SDS011;2304;47.606;12.186;2023-07-24T03:52:05;13.87;;;8.33;;
4583;SDS011;2304;47.606;12.186;2023-07-24T03:57:09;13.87;;;9.10;;
4583;SDS011;2304;47.606;12.186;2023-07-24T04:02:10;17.00;;;9.17;;
4583;SDS011;2304;47.606;12.186;2023-07-24T04:07:12;12.97;;;9.03;;
4583;SDS011;2304;47.606;12.186;2023-07-24T04:12:15;15.20;;;9.30;;
4583;SDS011;2304;47.606;12.186;2023-07-24T04:17:17;15.70;;;8.93;;
4583;SDS011;2304;47.606;12.186;2023-07-24T04:22:19;13.30;;;8.27;;
4583;SDS011;2304;47.606;12.186;2023-07-24T04:27:22;13.60;;;8.68;;
4583;SDS011;2304;47.606;12.186;2023-07-24T04:32:25;12.93;;;8.77;;
4583;SDS011;2304;47.606;12.186;2023-07-24T04:37:27;13.13;;;8.70;;
4583;SDS011;2304;47.606;12.186;2023-07-24T04:42:30;16.90;;;8.90;;
4583;SDS011;2304;47.606;12.186;2023-07-24T04:47:32;11.00;;;8.07;;
4583;SDS011;2304;47.606;12.186;2023-07-24T04:52:34;11.20;;;7.70;;
4583;SDS011;2304;47.606;12.186;2023-07-24T04:57:37;16.10;;;9.77;;
4583;SDS011;2304;47.606;12.186;2023-07-24T05:02:39;15.90;;;9.67;;
4583;SDS011;2304;47.606;12.186;2023-07-24T05:07:41;17.03;;;9.20;;
4583;SDS011;2304;47.606;12.186;2023-07-24T05:12:44;16.30;;;9.70;;
4583;SDS011;2304;47.606;12.186;2023-07-24T05:17:45;15.97;;;10.03;;
4583;SDS011;2304;47.606;12.186;2023-07-24T05:22:47;17.00;;;9.80;;
4583;SDS011;2304;47.606;12.186;2023-07-24T05:27:50;16.50;;;9.70;;
4583;SDS011;2304;47.606;12.186;2023-07-24T05:32:52;15.57;;;9.63;;
4583;SDS011;2304;47.606;12.186;2023-07-24T05:37:54;16.13;;;10.37;;
4583;SDS011;2304;47.606;12.186;2023-07-24T05:42:57;17.77;;;10.03;;
4583;SDS011;2304;47.606;12.186;2023-07-24T05:47:59;16.60;;;9.87;;
4583;SDS011;2304;47.606;12.186;2023-07-24T05:53:01;16.23;;;10.83;;
4583;SDS011;2304;47.606;12.186;2023-07-24T05:58:04;16.53;;;10.30;;
4583;SDS011;2304;47.606;12.186;2023-07-24T06:03:05;19.63;;;10.43;;
4583;SDS011;2304;47.606;12.186;2023-07-24T06:08:07;16.60;;;10.13;;
4583;SDS011;2304;47.606;12.186;2023-07-24T06:13:12;22.10;;;10.20;;
4583;SDS011;2304;47.606;12.186;2023-07-24T06:18:14;14.57;;;10.37;;
4583;SDS011;2304;47.606;12.186;2023-07-24T06:23:16;17.50;;;10.13;;
4583;SDS011;2304;47.606;12.186;2023-07-24T06:28:19;14.77;;;9.60;;
4583;SDS011;2304;47.606;12.186;2023-07-24T06:33:21;16.13;;;9.80;;
4583;SDS011;2304;47.606;12.186;2023-07-24T06:38:22;20.73;;;11.10;;
4583;SDS011;2304;47.606;12.186;2023-07-24T06:43:25;20.93;;;11.00;;
4583;SDS011;2304;47.606;12.186;2023-07-24T06:48:27;13.40;;;9.57;;
4583;SDS011;2304;47.606;12.186;2023-07-24T06:53:29;14.90;;;10.03;;
4583;SDS011;2304;47.606;12.186;2023-07-24T06:58:32;15.30;;;9.40;;
4583;SDS011;2304;47.606;12.186;2023-07-24T07:03:34;15.77;;;9.57;;
4583;SDS011;2304;47.606;12.186;2023-07-24T07:08:36;16.33;;;9.97;;
4583;SDS011;2304;47.606;12.186;2023-07-24T07:13:39;16.77;;;10.63;;
4583;SDS011;2304;47.606;12.186;2023-07-24T07:18:41;18.33;;;11.97;;
4583;SDS011;2304;47.606;12.186;2023-07-24T07:23:42;18.43;;;11.00;;
4583;SDS011;2304;47.606;12.186;2023-07-24T07:28:45;17.80;;;9.83;;
4583;SDS011;2304;47.606;12.186;2023-07-24T07:33:47;17.87;;;11.30;;
4583;SDS011;2304;47.606;12.186;2023-07-24T07:38:49;16.73;;;10.53;;
4583;SDS011;2304;47.606;12.186;2023-07-24T07:43:52;18.93;;;11.63;;
4583;SDS011;2304;47.606;12.186;2023-07-24T07:48:54;17.80;;;12.30;;
4583;SDS011;2304;47.606;12.186;2023-07-24T07:53:56;22.60;;;13.57;;
4583;SDS011;2304;47.606;12.186;2023-07-24T07:58:59;19.20;;;12.60;;
4583;SDS011;2304;47.606;12.186;2023-07-24T08:04:01;23.30;;;12.83;;
4583;SDS011;2304;47.606;12.186;2023-07-24T08:09:02;20.83;;;13.30;;
4583;SDS011;2304;47.606;12.186;2023-07-24T08:14:06;21.87;;;13.83;;
4583;SDS011;2304;47.606;12.186;2023-07-24T08:19:08;19.70;;;12.60;;
4583;SDS011;2304;47.606;12.186;2023-07-24T08:24:10;20.70;;;13.37;;
4583;SDS011;2304;47.606;12.186;2023-07-24T08:29:13;17.10;;;11.80;;
4583;SDS011;2304;47.606;12.186;2023-07-24T08:34:15;19.50;;;13.10;;
4583;SDS011;2304;47.606;12.186;2023-07-24T08:39:17;18.63;;;13.40;;
4583;SDS011;2304;47.606;12.186;2023-07-24T08:44:20;23.40;;;12.93;;
4583;SDS011;2304;47.606;12.186;2023-07-24T08:49:24;21.37;;;13.73;;
4583;SDS011;2304;47.606;12.186;2023-07-24T08:54:27;18.93;;;13.23;;
4583;SDS011;2304;47.606;12.186;2023-07-24T08:59:30;21.10;;;13.27;;
4583;SDS011;2304;47.606;12.186;2023-07-24T09:04:32;22.93;;;13.27;;
4583;SDS011;2304;47.606;12.186;2023-07-24T09:09:33;27.90;;;16.80;;
4583;SDS011;2304;47.606;12.186;2023-07-24T09:14:37;21.00;;;13.90;;
4583;SDS011;2304;47.606;12.186;2023-07-24T09:19:39;20.80;;;13.13;;
4583;SDS011;2304;47.606;12.186;2023-07-24T09:24:50;20.40;;;13.10;;
4583;SDS011;2304;47.606;12.186;2023-07-24T09:29:53;20.70;;;14.60;;
4583;SDS011;2304;47.606;12.186;2023-07-24T09:34:56;23.93;;;15.03;;
4583;SDS011;2304;47.606;12.186;2023-07-24T09:39:58;21.47;;;14.13;;
4583;SDS011;2304;47.606;12.186;2023-07-24T09:45:01;25.30;;;14.00;;
4583;SDS011;2304;47.606;12.186;2023-07-24T09:50:04;23.33;;;14.87;;
4583;SDS011;2304;47.606;12.186;2023-07-24T09:55:08;22.50;;;14.73;;
4583;SDS011;2304;47.606;12.186;2023-07-24T10:00:14;24.60;;;14.73;;
4583;SDS011;2304;47.606;12.186;2023-07-24T10:05:16;19.67;;;13.10;;
4583;SDS011;2304;47.606;12.186;2023-07-24T10:10:18;18.43;;;11.57;;
4583;SDS011;2304;47.606;12.186;2023-07-24T10:15:22;21.63;;;13.47;;
4583;SDS011;2304;47.606;12.186;2023-07-24T10:20:24;19.70;;;12.63;;
4583;SDS011;2304;47.606;12.186;2023-07-24T10:25:35;25.50;;;13.10;;
4583;SDS011;2304;47.606;12.186;2023-07-24T10:30:39;19.50;;;13.17;;
4583;SDS011;2304;47.606;12.186;2023-07-24T10:35:42;18.60;;;13.20;;
4583;SDS011;2304;47.606;12.186;2023-07-24T10:40:46;18.53;;;12.77;;
4583;SDS011;2304;47.606;12.186;2023-07-24T10:45:51;19.70;;;13.50;;
4583;SDS011;2304;47.606;12.186;2023-07-24T10:50:54;17.47;;;12.83;;
4583;SDS011;2304;47.606;12.186;2023-07-24T10:55:56;18.33;;;12.77;;
4583;SDS011;2304;47.606;12.186;2023-07-24T11:00:59;21.63;;;13.17;;
4583;SDS011;2304;47.606;12.186;2023-07-24T11:06:01;18.17;;;12.87;;
4583;SDS011;2304;47.606;12.186;2023-07-24T11:11:04;17.93;;;12.67;;
4583;SDS011;2304;47.606;12.186;2023-07-24T11:16:08;18.00;;;12.23;;
4583;SDS011;2304;47.606;12.186;2023-07-24T11:21:11;16.37;;;11.77;;
4583;SDS011;2304;47.606;12.186;2023-07-24T11:26:13;17.77;;;12.17;;
4583;SDS011;2304;47.606;12.186;2023-07-24T11:31:17;21.23;;;13.50;;
4583;SDS011;2304;47.606;12.186;2023-07-24T11:36:20;19.30;;;13.40;;
4583;SDS011;2304;47.606;12.186;2023-07-24T11:41:23;20.60;;;14.20;;
4583;SDS011;2304;47.606;12.186;2023-07-24T11:46:28;20.70;;;13.97;;
4583;SDS011;2304;47.606;12.186;2023-07-24T11:51:31;19.70;;;14.30;;
4583;SDS011;2304;47.606;12.186;2023-07-24T11:56:34;20.67;;;13.03;;
4583;SDS011;2304;47.606;12.186;2023-07-24T12:01:37;22.10;;;14.23;;
4583;SDS011;2304;47.606;12.186;2023-07-24T12:06:39;23.63;;;14.33;;
4583;SDS011;2304;47.606;12.186;2023-07-24T12:11:41;21.37;;;14.80;;
4583;SDS011;2304;47.606;12.186;2023-07-24T12:16:46;21.07;;;13.53;;
4583;SDS011;2304;47.606;12.186;2023-07-24T12:21:47;24.50;;;14.83;;
4583;SDS011;2304;47.606;12.186;2023-07-24T12:26:49;22.93;;;14.20;;
4583;SDS011;2304;47.606;12.186;2023-07-24T12:31:53;19.60;;;13.80;;
4583;SDS011;2304;47.606;12.186;2023-07-24T12:36:55;22.50;;;14.40;;
4583;SDS011;2304;47.606;12.186;2023-07-24T12:41:57;19.47;;;14.40;;
4583;SDS011;2304;47.606;12.186;2023-07-24T12:47:00;21.63;;;13.90;;
4583;SDS011;2304;47.606;12.186;2023-07-24T12:52:02;19.37;;;13.40;;
4583;SDS011;2304;47.606;12.186;2023-07-24T12:57:04;20.47;;;13.37;;
4583;SDS011;2304;47.606;12.186;2023-07-24T13:02:08;16.27;;;12.13;;
4583;SDS011;2304;47.606;12.186;2023-07-24T13:07:10;19.47;;;13.77;;
4583;SDS011;2304;47.606;12.186;2023-07-24T13:12:11;20.15;;;12.90;;
4583;SDS011;2304;47.606;12.186;2023-07-24T13:17:15;16.70;;;12.03;;
4583;SDS011;2304;47.606;12.186;2023-07-24T13:22:17;19.10;;;12.80;;
4583;SDS011;2304;47.606;12.186;2023-07-24T13:27:19;23.53;;;12.17;;
4583;SDS011;2304;47.606;12.186;2023-07-24T13:32:22;18.20;;;13.20;;
4583;SDS011;2304;47.606;12.186;2023-07-24T13:37:24;21.60;;;13.30;;
4583;SDS011;2304;47.606;12.186;2023-07-24T13:42:26;18.93;;;13.07;;
4583;SDS011;2304;47.606;12.186;2023-07-24T13:47:29;18.37;;;12.80;;
4583;SDS011;2304;47.606;12.186;2023-07-24T13:52:31;14.40;;;9.90;;
4583;SDS011;2304;47.606;12.186;2023-07-24T13:57:32;20.03;;;10.80;;
4583;SDS011;2304;47.606;12.186;2023-07-24T14:02:35;14.03;;;7.23;;
4583;SDS011;2304;47.606;12.186;2023-07-24T14:07:37;9.87;;;5.60;;
4583;SDS011;2304;47.606;12.186;2023-07-24T14:12:39;7.40;;;3.60;;
4583;SDS011;2304;47.606;12.186;2023-07-24T14:17:42;13.33;;;7.23;;
4583;SDS011;2304;47.606;12.186;2023-07-24T14:22:44;9.80;;;5.77;;
4583;SDS011;2304;47.606;12.186;2023-07-24T14:27:46;9.10;;;5.20;;
4583;SDS011;2304;47.606;12.186;2023-07-24T14:32:49;5.10;;;3.70;;
4583;SDS011;2304;47.606;12.186;2023-07-24T14:37:51;7.80;;;4.47;;
4583;SDS011;2304;47.606;12.186;2023-07-24T14:42:53;7.33;;;4.30;;
4583;SDS011;2304;47.606;12.186;2023-07-24T14:47:56;4.95;;;3.15;;
4583;SDS011;2304;47.606;12.186;2023-07-24T14:52:58;5.97;;;3.17;;
4583;SDS011;2304;47.606;12.186;2023-07-24T14:58:00;5.03;;;2.27;;
4583;SDS011;2304;47.606;12.186;2023-07-24T15:03:03;4.77;;;2.40;;
4583;SDS011;2304;47.606;12.186;2023-07-24T15:08:05;4.33;;;2.03;;
4583;SDS011;2304;47.606;12.186;2023-07-24T15:13:08;3.27;;;1.93;;
4583;SDS011;2304;47.606;12.186;2023-07-24T15:18:12;4.00;;;2.53;;
4583;SDS011;2304;47.606;12.186;2023-07-24T15:23:14;2.90;;;1.80;;
4583;SDS011;2304;47.606;12.186;2023-07-24T15:28:16;4.10;;;2.50;;
4583;SDS011;2304;47.606;12.186;2023-07-24T15:57:07;3.37;;;1.70;;
4583;SDS011;2304;47.606;12.186;2023-07-24T16:02:09;3.67;;;2.00;;
4583;SDS011;2304;47.606;12.186;2023-07-24T16:07:10;4.40;;;2.30;;
4583;SDS011;2304;47.606;12.186;2023-07-24T16:12:14;3.53;;;1.87;;
4583;SDS011;2304;47.606;12.186;2023-07-24T16:17:15;4.73;;;2.33;;
4583;SDS011;2304;47.606;12.186;2023-07-24T16:22:17;4.00;;;1.70;;
4583;SDS011;2304;47.606;12.186;2023-07-24T16:27:21;3.23;;;1.97;;
4583;SDS011;2304;47.606;12.186;2023-07-24T16:32:22;3.30;;;2.17;;
4583;SDS011;2304;47.606;12.186;2023-07-24T16:37:24;10.50;;;2.30;;
4583;SDS011;2304;47.606;12.186;2023-07-24T16:42:30;5.67;;;2.10;;
4583;SDS011;2304;47.606;12.186;2023-07-24T16:47:31;4.23;;;2.13;;
4583;SDS011;2304;47.606;12.186;2023-07-24T16:52:34;3.93;;;2.57;;
4583;SDS011;2304;47.606;12.186;2023-07-24T16:57:37;4.80;;;2.20;;
4583;SDS011;2304;47.606;12.186;2023-07-24T17:02:39;4.33;;;2.33;;
4583;SDS011;2304;47.606;12.186;2023-07-24T17:07:40;7.17;;;2.30;;
4583;SDS011;2304;47.606;12.186;2023-07-24T17:12:44;3.10;;;1.80;;
4583;SDS011;2304;47.606;12.186;2023-07-24T17:17:46;5.60;;;2.37;;
4583;SDS011;2304;47.606;12.186;2023-07-24T17:22:48;3.60;;;2.07;;
4583;SDS011;2304;47.606;12.186;2023-07-24T17:27:51;4.80;;;2.63;;
4583;SDS011;2304;47.606;12.186;2023-07-24T17:32:53;4.97;;;2.43;;
4583;SDS011;2304;47.606;12.186;2023-07-24T17:37:55;4.07;;;2.80;;
4583;SDS011;2304;47.606;12.186;2023-07-24T17:42:59;6.40;;;3.00;;
4583;SDS011;2304;47.606;12.186;2023-07-24T17:48:00;4.60;;;2.80;;
4583;SDS011;2304;47.606;12.186;2023-07-24T17:53:02;5.87;;;4.00;;
4583;SDS011;2304;47.606;12.186;2023-07-24T17:58:05;7.60;;;4.50;;
4583;SDS011;2304;47.606;12.186;2023-07-24T18:03:07;8.13;;;4.90;;
4583;SDS011;2304;47.606;12.186;2023-07-24T18:08:09;8.60;;;5.20;;
4583;SDS011;2304;47.606;12.186;2023-07-24T18:13:12;10.10;;;5.47;;
4583;SDS011;2304;47.606;12.186;2023-07-24T18:18:14;9.37;;;5.33;;
4583;SDS011;2304;47.606;12.186;2023-07-24T18:23:16;8.17;;;5.43;;
4583;SDS011;2304;47.606;12.186;2023-07-24T18:28:19;13.23;;;6.30;;
4583;SDS011;2304;47.606;12.186;2023-07-24T18:33:21;8.40;;;5.40;;
4583;SDS011;2304;47.606;12.186;2023-07-24T18:38:23;9.60;;;6.10;;
4583;SDS011;2304;47.606;12.186;2023-07-24T18:43:26;8.90;;;6.57;;
4583;SDS011;2304;47.606;12.186;2023-07-24T18:48:28;12.33;;;6.00;;
4583;SDS011;2304;47.606;12.186;2023-07-24T18:53:30;8.03;;;5.30;;
4583;SDS011;2304;47.606;12.186;2023-07-24T18:58:33;9.67;;;5.10;;
4583;SDS011;2304;47.606;12.186;2023-07-24T19:03:35;11.47;;;6.27;;
4583;SDS011;2304;47.606;12.186;2023-07-24T19:08:37;7.60;;;4.80;;
4583;SDS011;2304;47.606;12.186;2023-07-24T19:13:40;9.57;;;5.30;;
4583;SDS011;2304;47.606;12.186;2023-07-24T19:18:41;7.03;;;5.20;;
4583;SDS011;2304;47.606;12.186;2023-07-24T19:23:43;7.63;;;4.70;;
4583;SDS011;2304;47.606;12.186;2023-07-24T19:28:47;7.10;;;5.40;;
4583;SDS011;2304;47.606;12.186;2023-07-24T19:33:48;7.30;;;4.87;;
4583;SDS011;2304;47.606;12.186;2023-07-24T19:38:50;9.43;;;5.27;;
4583;SDS011;2304;47.606;12.186;2023-07-24T19:43:53;8.70;;;5.10;;
4583;SDS011;2304;47.606;12.186;2023-07-24T19:48:55;8.63;;;5.10;;
4583;SDS011;2304;47.606;12.186;2023-07-24T19:53:57;7.07;;;4.57;;
4583;SDS011;2304;47.606;12.186;2023-07-24T19:59:00;8.03;;;5.00;;
4583;SDS011;2304;47.606;12.186;2023-07-24T20:04:02;6.43;;;4.47;;
4583;SDS011;2304;47.606;12.186;2023-07-24T20:09:04;7.67;;;5.03;;
4583;SDS011;2304;47.606;12.186;2023-07-24T20:14:08;8.17;;;4.90;;
4583;SDS011;2304;47.606;12.186;2023-07-24T20:19:10;8.20;;;5.83;;
4583;SDS011;2304;47.606;12.186;2023-07-24T20:24:12;8.77;;;5.63;;
4583;SDS011;2304;47.606;12.186;2023-07-24T20:29:15;6.50;;;4.13;;
4583;SDS011;2304;47.606;12.186;2023-07-24T20:34:17;6.17;;;4.33;;
4583;SDS011;2304;47.606;12.186;2023-07-24T20:39:19;6.63;;;3.70;;
4583;SDS011;2304;47.606;12.186;2023-07-24T20:44:22;7.20;;;3.90;;
4583;SDS011;2304;47.606;12.186;2023-07-24T20:49:24;7.93;;;4.63;;
4583;SDS011;2304;47.606;12.186;2023-07-24T20:54:26;7.10;;;4.90;;
4583;SDS011;2304;47.606;12.186;2023-07-24T20:59:29;6.50;;;4.63;;
4583;SDS011;2304;47.606;12.186;2023-07-24T21:04:31;7.90;;;4.97;;
4583;SDS011;2304;47.606;12.186;2023-07-24T21:09:33;6.73;;;4.20;;
4583;SDS011;2304;47.606;12.186;2023-07-24T21:14:36;7.67;;;4.67;;
4583;SDS011;2304;47.606;12.186;2023-07-24T21:19:38;5.70;;;3.90;;
4583;SDS011;2304;47.606;12.186;2023-07-24T21:24:39;4.67;;;3.50;;
4583;SDS011;2304;47.606;12.186;2023-07-24T21:29:42;11.27;;;5.77;;
4583;SDS011;2304;47.606;12.186;2023-07-24T21:34:44;8.37;;;5.23;;
4583;SDS011;2304;47.606;12.186;2023-07-24T21:39:46;11.47;;;6.70;;
4583;SDS011;2304;47.606;12.186;2023-07-24T21:44:49;11.13;;;6.50;;
4583;SDS011;2304;47.606;12.186;2023-07-24T21:49:51;8.63;;;5.07;;
4583;SDS011;2304;47.606;12.186;2023-07-24T21:54:53;6.20;;;3.67;;
4583;SDS011;2304;47.606;12.186;2023-07-24T21:59:56;7.87;;;3.53;;
4583;SDS011;2304;47.606;12.186;2023-07-24T22:04:58;11.03;;;6.00;;
4583;SDS011;2304;47.606;12.186;2023-07-24T22:10:00;6.87;;;4.40;;
4583;SDS011;2304;47.606;12.186;2023-07-24T22:15:03;5.80;;;3.60;;
4583;SDS011;2304;47.606;12.186;2023-07-24T22:20:06;11.40;;;5.70;;
4583;SDS011;2304;47.606;12.186;2023-07-24T22:25:10;8.13;;;4.90;;
4583;SDS011;2304;47.606;12.186;2023-07-24T22:30:13;5.50;;;4.20;;
4583;SDS011;2304;47.606;12.186;2023-07-24T22:35:15;8.90;;;4.43;;
4583;SDS011;2304;47.606;12.186;2023-07-24T22:40:17;7.07;;;4.47;;
4583;SDS011;2304;47.606;12.186;2023-07-24T22:45:20;7.27;;;4.30;;
4583;SDS011;2304;47.606;12.186;2023-07-24T22:50:22;6.83;;;3.73;;
4583;SDS011;2304;47.606;12.186;2023-07-24T22:55:24;6.60;;;4.00;;
4583;SDS011;2304;47.606;12.186;2023-07-24T23:00:27;5.67;;;3.90;;
4583;SDS011;2304;47.606;12.186;2023-07-24T23:05:29;6.20;;;3.30;;
4583;SDS011;2304;47.606;12.186;2023-07-24T23:10:31;6.63;;;3.37;;
4583;SDS011;2304;47.606;12.186;2023-07-24T23:15:52;10.43;;;3.40;;
4583;SDS011;2304;47.606;12.186;2023-07-24T23:21:18;7.23;;;3.17;;
4583;SDS011;2304;47.606;12.186;2023-07-24T23:26:20;6.10;;;3.30;;
4583;SDS011;2304;47.606;12.186;2023-07-24T23:31:23;4.50;;;2.90;;
4583;SDS011;2304;47.606;12.186;2023-07-24T23:36:25;5.70;;;3.10;;
4583;SDS011;2304;47.606;12.186;2023-07-24T23:41:27;8.67;;;3.57;;
4583;SDS011;2304;47.606;12.186;2023-07-24T23:46:30;4.33;;;2.70;;
4583;SDS011;2304;47.606;12.186;2023-07-24T23:51:32;4.13;;;2.40;;
4583;SDS011;2304;47.606;12.186;2023-07-24T23:56:34;5.30;;;2.53;;
